sensor_id;sensor_type;location;lat;lon;timestamp;P1;durP1;ratioP1;P2;durP2;ratioP2
26946;SDS011;14501;52.282;10.560;2023-06-26T00:02:18;5.70;;;5.07;;
26946;SDS011;14501;52.282;10.560;2023-06-26T00:04:43;9.82;;;5.40;;
26946;SDS011;14501;52.282;10.560;2023-06-26T00:07:09;5.45;;;4.95;;
26946;SDS011;14501;52.282;10.560;2023-06-26T00:09:36;5.50;;;4.55;;
26946;SDS011;14501;52.282;10.560;2023-06-26T00:12:01;6.72;;;5.25;;
26946;SDS011;14501;52.282;10.560;2023-06-26T00:14:27;8.07;;;5.57;;
26946;SDS011;14501;52.282;10.560;2023-06-26T00:16:53;8.43;;;4.82;;
26946;SDS011;14501;52.282;10.560;2023-06-26T00:19:19;5.50;;;4.68;;
26946;SDS011;14501;52.282;10.560;2023-06-26T00:21:44;6.47;;;5.18;;
26946;SDS011;14501;52.282;10.560;2023-06-26T00:24:13;7.85;;;5.35;;
26946;SDS011;14501;52.282;10.560;2023-06-26T00:26:39;7.55;;;5.63;;
26946;SDS011;14501;52.282;10.560;2023-06-26T00:29:04;6.07;;;5.05;;
26946;SDS011;14501;52.282;10.560;2023-06-26T00:31:30;8.20;;;5.28;;
26946;SDS011;14501;52.282;10.560;2023-06-26T00:33:56;6.80;;;5.15;;
26946;SDS011;14501;52.282;10.560;2023-06-26T00:36:22;6.88;;;5.05;;
26946;SDS011;14501;52.282;10.560;2023-06-26T00:38:51;6.00;;;5.32;;
26946;SDS011;14501;52.282;10.560;2023-06-26T00:41:17;8.40;;;5.45;;
26946;SDS011;14501;52.282;10.560;2023-06-26T00:43:43;7.80;;;5.50;;
26946;SDS011;14501;52.282;10.560;2023-06-26T00:46:09;6.75;;;5.38;;
26946;SDS011;14501;52.282;10.560;2023-06-26T00:48:37;9.90;;;5.93;;
26946;SDS011;14501;52.282;10.560;2023-06-26T00:51:04;5.68;;;5.07;;
26946;SDS011;14501;52.282;10.560;2023-06-26T00:53:30;6.93;;;5.57;;
26946;SDS011;14501;52.282;10.560;2023-06-26T00:55:56;7.10;;;5.40;;
26946;SDS011;14501;52.282;10.560;2023-06-26T00:58:22;9.02;;;5.50;;
26946;SDS011;14501;52.282;10.560;2023-06-26T01:00:50;6.05;;;5.00;;
26946;SDS011;14501;52.282;10.560;2023-06-26T01:03:16;8.55;;;5.25;;
26946;SDS011;14501;52.282;10.560;2023-06-26T01:05:42;6.65;;;5.25;;
26946;SDS011;14501;52.282;10.560;2023-06-26T01:08:10;6.93;;;5.60;;
26946;SDS011;14501;52.282;10.560;2023-06-26T01:10:38;7.88;;;5.30;;
26946;SDS011;14501;52.282;10.560;2023-06-26T01:13:04;5.57;;;5.07;;
26946;SDS011;14501;52.282;10.560;2023-06-26T01:15:30;6.95;;;5.68;;
26946;SDS011;14501;52.282;10.560;2023-06-26T01:17:56;7.10;;;5.60;;
26946;SDS011;14501;52.282;10.560;2023-06-26T01:20:31;6.63;;;5.75;;
26946;SDS011;14501;52.282;10.560;2023-06-26T01:28:26;6.93;;;5.32;;
26946;SDS011;14501;52.282;10.560;2023-06-26T01:30:53;7.15;;;5.40;;
26946;SDS011;14501;52.282;10.560;2023-06-26T01:33:19;8.10;;;5.20;;
26946;SDS011;14501;52.282;10.560;2023-06-26T01:35:45;6.85;;;5.50;;
26946;SDS011;14501;52.282;10.560;2023-06-26T01:38:21;6.10;;;5.50;;
26946;SDS011;14501;52.282;10.560;2023-06-26T01:40:51;9.65;;;5.13;;
26946;SDS011;14501;52.282;10.560;2023-06-26T01:43:24;5.82;;;5.20;;
26946;SDS011;14501;52.282;10.560;2023-06-26T01:46:15;7.28;;;5.47;;
26946;SDS011;14501;52.282;10.560;2023-06-26T01:48:55;7.65;;;5.72;;
26946;SDS011;14501;52.282;10.560;2023-06-26T01:51:32;6.53;;;5.15;;
26946;SDS011;14501;52.282;10.560;2023-06-26T01:54:03;7.05;;;5.55;;
26946;SDS011;14501;52.282;10.560;2023-06-26T01:56:38;7.45;;;5.25;;
26946;SDS011;14501;52.282;10.560;2023-06-26T01:59:05;6.03;;;5.13;;
26946;SDS011;14501;52.282;10.560;2023-06-26T02:01:32;8.75;;;5.70;;
26946;SDS011;14501;52.282;10.560;2023-06-26T02:03:58;6.47;;;5.28;;
26946;SDS011;14501;52.282;10.560;2023-06-26T02:06:24;6.28;;;5.28;;
26946;SDS011;14501;52.282;10.560;2023-06-26T02:08:50;7.45;;;5.72;;
26946;SDS011;14501;52.282;10.560;2023-06-26T02:11:16;7.15;;;6.05;;
26946;SDS011;14501;52.282;10.560;2023-06-26T02:13:42;7.53;;;5.60;;
26946;SDS011;14501;52.282;10.560;2023-06-26T02:16:07;6.15;;;5.45;;
26946;SDS011;14501;52.282;10.560;2023-06-26T02:18:33;6.88;;;6.00;;
26946;SDS011;14501;52.282;10.560;2023-06-26T02:20:58;10.27;;;5.72;;
26946;SDS011;14501;52.282;10.560;2023-06-26T02:23:25;6.85;;;5.85;;
26946;SDS011;14501;52.282;10.560;2023-06-26T02:25:50;8.38;;;5.47;;
26946;SDS011;14501;52.282;10.560;2023-06-26T02:28:16;6.72;;;5.43;;
26946;SDS011;14501;52.282;10.560;2023-06-26T02:30:41;6.15;;;4.97;;
26946;SDS011;14501;52.282;10.560;2023-06-26T02:33:07;7.43;;;5.70;;
26946;SDS011;14501;52.282;10.560;2023-06-26T02:35:33;7.90;;;6.10;;
26946;SDS011;14501;52.282;10.560;2023-06-26T02:37:59;7.10;;;4.95;;
26946;SDS011;14501;52.282;10.560;2023-06-26T02:40:24;11.35;;;6.40;;
26946;SDS011;14501;52.282;10.560;2023-06-26T02:42:50;6.38;;;5.22;;
26946;SDS011;14501;52.282;10.560;2023-06-26T02:45:16;6.53;;;5.30;;
26946;SDS011;14501;52.282;10.560;2023-06-26T02:47:41;10.32;;;5.40;;
26946;SDS011;14501;52.282;10.560;2023-06-26T02:50:07;7.15;;;5.65;;
26946;SDS011;14501;52.282;10.560;2023-06-26T02:52:33;8.65;;;6.20;;
26946;SDS011;14501;52.282;10.560;2023-06-26T02:54:59;7.30;;;6.03;;
26946;SDS011;14501;52.282;10.560;2023-06-26T02:57:24;7.15;;;5.18;;
26946;SDS011;14501;52.282;10.560;2023-06-26T02:59:50;6.70;;;5.20;;
26946;SDS011;14501;52.282;10.560;2023-06-26T03:02:15;9.02;;;6.15;;
26946;SDS011;14501;52.282;10.560;2023-06-26T03:04:41;13.90;;;5.60;;
26946;SDS011;14501;52.282;10.560;2023-06-26T03:07:08;8.13;;;5.57;;
26946;SDS011;14501;52.282;10.560;2023-06-26T03:09:34;7.55;;;5.80;;
26946;SDS011;14501;52.282;10.560;2023-06-26T03:12:00;6.78;;;5.97;;
26946;SDS011;14501;52.282;10.560;2023-06-26T03:14:26;10.23;;;5.82;;
26946;SDS011;14501;52.282;10.560;2023-06-26T03:16:52;11.32;;;5.63;;
26946;SDS011;14501;52.282;10.560;2023-06-26T03:19:18;6.70;;;5.75;;
26946;SDS011;14501;52.282;10.560;2023-06-26T03:21:43;7.78;;;5.75;;
26946;SDS011;14501;52.282;10.560;2023-06-26T03:24:09;8.18;;;5.45;;
26946;SDS011;14501;52.282;10.560;2023-06-26T03:26:35;8.98;;;6.30;;
26946;SDS011;14501;52.282;10.560;2023-06-26T03:29:00;8.30;;;6.25;;
26946;SDS011;14501;52.282;10.560;2023-06-26T03:31:26;9.70;;;5.93;;
26946;SDS011;14501;52.282;10.560;2023-06-26T03:33:52;10.50;;;5.78;;
26946;SDS011;14501;52.282;10.560;2023-06-26T03:36:17;10.00;;;6.13;;
26946;SDS011;14501;52.282;10.560;2023-06-26T03:38:43;9.23;;;5.72;;
26946;SDS011;14501;52.282;10.560;2023-06-26T03:41:08;10.00;;;5.85;;
26946;SDS011;14501;52.282;10.560;2023-06-26T03:43:34;7.55;;;5.88;;
26946;SDS011;14501;52.282;10.560;2023-06-26T03:46:00;6.80;;;5.88;;
26946;SDS011;14501;52.282;10.560;2023-06-26T03:48:25;9.88;;;5.50;;
26946;SDS011;14501;52.282;10.560;2023-06-26T03:50:51;7.45;;;5.50;;
26946;SDS011;14501;52.282;10.560;2023-06-26T03:53:17;8.57;;;5.82;;
26946;SDS011;14501;52.282;10.560;2023-06-26T03:55:43;7.68;;;6.00;;
26946;SDS011;14501;52.282;10.560;2023-06-26T03:58:08;6.75;;;5.50;;
26946;SDS011;14501;52.282;10.560;2023-06-26T04:00:34;7.78;;;5.35;;
26946;SDS011;14501;52.282;10.560;2023-06-26T04:02:59;7.45;;;5.65;;
26946;SDS011;14501;52.282;10.560;2023-06-26T04:05:25;7.32;;;5.32;;
26946;SDS011;14501;52.282;10.560;2023-06-26T04:07:51;7.20;;;5.47;;
26946;SDS011;14501;52.282;10.560;2023-06-26T04:10:17;8.30;;;5.30;;
26946;SDS011;14501;52.282;10.560;2023-06-26T04:12:43;6.70;;;5.07;;
26946;SDS011;14501;52.282;10.560;2023-06-26T04:15:09;7.88;;;5.72;;
26946;SDS011;14501;52.282;10.560;2023-06-26T04:17:35;9.07;;;5.28;;
26946;SDS011;14501;52.282;10.560;2023-06-26T04:20:00;8.95;;;5.50;;
26946;SDS011;14501;52.282;10.560;2023-06-26T04:22:26;7.57;;;5.30;;
26946;SDS011;14501;52.282;10.560;2023-06-26T04:24:52;5.85;;;5.22;;
26946;SDS011;14501;52.282;10.560;2023-06-26T04:27:18;8.43;;;5.05;;
26946;SDS011;14501;52.282;10.560;2023-06-26T04:29:44;6.15;;;4.82;;
26946;SDS011;14501;52.282;10.560;2023-06-26T04:32:09;7.72;;;5.05;;
26946;SDS011;14501;52.282;10.560;2023-06-26T04:34:35;7.75;;;4.85;;
26946;SDS011;14501;52.282;10.560;2023-06-26T04:37:07;10.13;;;5.05;;
26946;SDS011;14501;52.282;10.560;2023-06-26T04:39:35;6.57;;;5.07;;
26946;SDS011;14501;52.282;10.560;2023-06-26T04:42:02;7.82;;;4.78;;
26946;SDS011;14501;52.282;10.560;2023-06-26T04:44:28;7.15;;;5.20;;
26946;SDS011;14501;52.282;10.560;2023-06-26T04:46:54;5.78;;;5.20;;
26946;SDS011;14501;52.282;10.560;2023-06-26T04:49:20;8.70;;;4.85;;
26946;SDS011;14501;52.282;10.560;2023-06-26T04:51:46;6.80;;;4.63;;
26946;SDS011;14501;52.282;10.560;2023-06-26T04:54:11;9.23;;;4.80;;
26946;SDS011;14501;52.282;10.560;2023-06-26T04:56:37;6.93;;;4.57;;
26946;SDS011;14501;52.282;10.560;2023-06-26T04:59:06;7.00;;;4.40;;
26946;SDS011;14501;52.282;10.560;2023-06-26T05:01:31;8.70;;;4.22;;
26946;SDS011;14501;52.282;10.560;2023-06-26T05:03:58;6.43;;;4.90;;
26946;SDS011;14501;52.282;10.560;2023-06-26T05:06:23;7.80;;;5.03;;
26946;SDS011;14501;52.282;10.560;2023-06-26T05:08:49;7.30;;;4.85;;
26946;SDS011;14501;52.282;10.560;2023-06-26T05:11:15;6.32;;;4.57;;
26946;SDS011;14501;52.282;10.560;2023-06-26T05:13:41;7.07;;;4.32;;
26946;SDS011;14501;52.282;10.560;2023-06-26T05:16:07;5.28;;;4.75;;
26946;SDS011;14501;52.282;10.560;2023-06-26T05:18:34;6.30;;;4.70;;
26946;SDS011;14501;52.282;10.560;2023-06-26T05:21:01;6.88;;;4.68;;
26946;SDS011;14501;52.282;10.560;2023-06-26T05:23:27;6.55;;;4.22;;
26946;SDS011;14501;52.282;10.560;2023-06-26T05:25:57;5.93;;;4.22;;
26946;SDS011;14501;52.282;10.560;2023-06-26T05:28:24;8.98;;;4.70;;
26946;SDS011;14501;52.282;10.560;2023-06-26T05:30:52;6.10;;;4.53;;
26946;SDS011;14501;52.282;10.560;2023-06-26T05:33:18;6.78;;;4.30;;
26946;SDS011;14501;52.282;10.560;2023-06-26T05:35:46;9.40;;;4.85;;
26946;SDS011;14501;52.282;10.560;2023-06-26T05:38:17;5.40;;;4.20;;
26946;SDS011;14501;52.282;10.560;2023-06-26T05:40:43;7.13;;;4.65;;
26946;SDS011;14501;52.282;10.560;2023-06-26T05:43:10;6.75;;;4.53;;
26946;SDS011;14501;52.282;10.560;2023-06-26T05:45:36;5.70;;;4.13;;
26946;SDS011;14501;52.282;10.560;2023-06-26T05:48:01;5.20;;;4.47;;
26946;SDS011;14501;52.282;10.560;2023-06-26T05:50:27;6.82;;;4.47;;
26946;SDS011;14501;52.282;10.560;2023-06-26T05:52:54;5.28;;;4.78;;
26946;SDS011;14501;52.282;10.560;2023-06-26T05:55:20;5.40;;;3.70;;
26946;SDS011;14501;52.282;10.560;2023-06-26T05:57:46;6.22;;;3.83;;
26946;SDS011;14501;52.282;10.560;2023-06-26T06:00:12;7.30;;;3.67;;
26946;SDS011;14501;52.282;10.560;2023-06-26T06:02:38;4.72;;;3.97;;
26946;SDS011;14501;52.282;10.560;2023-06-26T06:05:06;7.10;;;3.95;;
26946;SDS011;14501;52.282;10.560;2023-06-26T06:07:33;6.88;;;4.00;;
26946;SDS011;14501;52.282;10.560;2023-06-26T06:09:59;4.90;;;3.90;;
26946;SDS011;14501;52.282;10.560;2023-06-26T06:12:25;6.65;;;4.22;;
26946;SDS011;14501;52.282;10.560;2023-06-26T06:14:51;6.43;;;3.95;;
26946;SDS011;14501;52.282;10.560;2023-06-26T06:17:17;4.47;;;4.03;;
26946;SDS011;14501;52.282;10.560;2023-06-26T06:19:44;5.88;;;3.70;;
26946;SDS011;14501;52.282;10.560;2023-06-26T06:22:10;9.30;;;4.10;;
26946;SDS011;14501;52.282;10.560;2023-06-26T06:24:36;5.25;;;3.83;;
26946;SDS011;14501;52.282;10.560;2023-06-26T06:27:02;3.95;;;3.63;;
26946;SDS011;14501;52.282;10.560;2023-06-26T06:29:27;5.32;;;4.10;;
26946;SDS011;14501;52.282;10.560;2023-06-26T06:31:53;5.57;;;3.70;;
26946;SDS011;14501;52.282;10.560;2023-06-26T06:34:19;7.53;;;4.03;;
26946;SDS011;14501;52.282;10.560;2023-06-26T06:36:44;4.70;;;3.97;;
26946;SDS011;14501;52.282;10.560;2023-06-26T06:39:10;5.65;;;4.05;;
26946;SDS011;14501;52.282;10.560;2023-06-26T06:41:36;5.53;;;4.22;;
26946;SDS011;14501;52.282;10.560;2023-06-26T06:44:02;4.88;;;4.18;;
26946;SDS011;14501;52.282;10.560;2023-06-26T06:46:27;5.55;;;3.47;;
26946;SDS011;14501;52.282;10.560;2023-06-26T06:48:53;7.63;;;3.72;;
26946;SDS011;14501;52.282;10.560;2023-06-26T06:51:19;4.75;;;4.25;;
26946;SDS011;14501;52.282;10.560;2023-06-26T06:53:45;5.97;;;4.18;;
26946;SDS011;14501;52.282;10.560;2023-06-26T06:56:10;5.03;;;4.10;;
26946;SDS011;14501;52.282;10.560;2023-06-26T06:58:36;5.28;;;4.15;;
26946;SDS011;14501;52.282;10.560;2023-06-26T07:01:01;5.00;;;4.10;;
26946;SDS011;14501;52.282;10.560;2023-06-26T07:03:28;6.78;;;4.15;;
26946;SDS011;14501;52.282;10.560;2023-06-26T07:05:54;5.43;;;4.18;;
26946;SDS011;14501;52.282;10.560;2023-06-26T07:08:21;4.97;;;4.00;;
26946;SDS011;14501;52.282;10.560;2023-06-26T07:10:46;6.20;;;3.88;;
26946;SDS011;14501;52.282;10.560;2023-06-26T07:13:12;5.68;;;4.00;;
26946;SDS011;14501;52.282;10.560;2023-06-26T07:15:37;4.43;;;4.07;;
26946;SDS011;14501;52.282;10.560;2023-06-26T07:18:03;5.45;;;4.13;;
26946;SDS011;14501;52.282;10.560;2023-06-26T07:20:29;4.72;;;4.32;;
26946;SDS011;14501;52.282;10.560;2023-06-26T07:22:55;5.60;;;4.30;;
26946;SDS011;14501;52.282;10.560;2023-06-26T07:25:20;6.90;;;4.30;;
26946;SDS011;14501;52.282;10.560;2023-06-26T07:27:46;5.18;;;4.18;;
26946;SDS011;14501;52.282;10.560;2023-06-26T07:30:12;5.30;;;4.60;;
26946;SDS011;14501;52.282;10.560;2023-06-26T07:32:38;4.97;;;4.40;;
26946;SDS011;14501;52.282;10.560;2023-06-26T07:35:05;5.32;;;4.72;;
26946;SDS011;14501;52.282;10.560;2023-06-26T07:37:31;5.18;;;4.65;;
26946;SDS011;14501;52.282;10.560;2023-06-26T07:39:57;5.07;;;4.60;;
26946;SDS011;14501;52.282;10.560;2023-06-26T07:42:23;11.07;;;4.45;;
26946;SDS011;14501;52.282;10.560;2023-06-26T07:44:48;8.35;;;4.95;;
26946;SDS011;14501;52.282;10.560;2023-06-26T07:47:14;6.28;;;4.63;;
26946;SDS011;14501;52.282;10.560;2023-06-26T07:49:40;6.30;;;4.40;;
26946;SDS011;14501;52.282;10.560;2023-06-26T07:52:05;5.53;;;4.93;;
26946;SDS011;14501;52.282;10.560;2023-06-26T07:54:31;7.03;;;5.05;;
26946;SDS011;14501;52.282;10.560;2023-06-26T07:56:58;7.15;;;4.97;;
26946;SDS011;14501;52.282;10.560;2023-06-26T07:59:28;6.80;;;5.05;;
26946;SDS011;14501;52.282;10.560;2023-06-26T08:01:55;5.20;;;4.75;;
26946;SDS011;14501;52.282;10.560;2023-06-26T08:04:22;7.55;;;4.88;;
26946;SDS011;14501;52.282;10.560;2023-06-26T08:06:49;7.53;;;4.85;;
26946;SDS011;14501;52.282;10.560;2023-06-26T08:09:18;4.82;;;4.30;;
26946;SDS011;14501;52.282;10.560;2023-06-26T08:11:46;5.15;;;4.47;;
26946;SDS011;14501;52.282;10.560;2023-06-26T08:14:12;6.40;;;4.35;;
26946;SDS011;14501;52.282;10.560;2023-06-26T08:16:38;5.30;;;4.80;;
26946;SDS011;14501;52.282;10.560;2023-06-26T08:19:04;6.80;;;4.50;;
26946;SDS011;14501;52.282;10.560;2023-06-26T08:21:30;10.15;;;4.22;;
26946;SDS011;14501;52.282;10.560;2023-06-26T08:23:55;9.15;;;5.10;;
26946;SDS011;14501;52.282;10.560;2023-06-26T08:26:21;6.55;;;4.85;;
26946;SDS011;14501;52.282;10.560;2023-06-26T08:28:47;4.63;;;4.28;;
26946;SDS011;14501;52.282;10.560;2023-06-26T08:31:13;6.20;;;4.47;;
26946;SDS011;14501;52.282;10.560;2023-06-26T08:33:38;7.07;;;4.53;;
26946;SDS011;14501;52.282;10.560;2023-06-26T08:36:04;4.68;;;4.28;;
26946;SDS011;14501;52.282;10.560;2023-06-26T08:38:29;5.45;;;4.95;;
26946;SDS011;14501;52.282;10.560;2023-06-26T08:40:56;5.57;;;5.07;;
26946;SDS011;14501;52.282;10.560;2023-06-26T08:43:22;7.25;;;5.10;;
26946;SDS011;14501;52.282;10.560;2023-06-26T08:45:48;10.25;;;4.70;;
26946;SDS011;14501;52.282;10.560;2023-06-26T08:48:16;5.63;;;4.80;;
26946;SDS011;14501;52.282;10.560;2023-06-26T08:50:43;4.82;;;4.43;;
26946;SDS011;14501;52.282;10.560;2023-06-26T08:55:36;5.22;;;4.72;;
26946;SDS011;14501;52.282;10.560;2023-06-26T08:58:06;5.38;;;4.78;;
26946;SDS011;14501;52.282;10.560;2023-06-26T09:00:31;5.43;;;4.78;;
26946;SDS011;14501;52.282;10.560;2023-06-26T09:02:57;8.57;;;5.32;;
26946;SDS011;14501;52.282;10.560;2023-06-26T09:05:25;5.15;;;4.75;;
26946;SDS011;14501;52.282;10.560;2023-06-26T09:07:52;5.13;;;4.57;;
26946;SDS011;14501;52.282;10.560;2023-06-26T09:10:20;5.97;;;5.32;;
26946;SDS011;14501;52.282;10.560;2023-06-26T09:12:46;5.15;;;4.60;;
26946;SDS011;14501;52.282;10.560;2023-06-26T09:15:14;6.35;;;4.78;;
26946;SDS011;14501;52.282;10.560;2023-06-26T09:17:40;5.97;;;4.82;;
26946;SDS011;14501;52.282;10.560;2023-06-26T09:20:07;6.72;;;4.82;;
26946;SDS011;14501;52.282;10.560;2023-06-26T09:22:34;5.40;;;4.90;;
26946;SDS011;14501;52.282;10.560;2023-06-26T09:25:03;5.18;;;4.78;;
26946;SDS011;14501;52.282;10.560;2023-06-26T09:27:30;5.85;;;4.82;;
26946;SDS011;14501;52.282;10.560;2023-06-26T09:29:56;5.07;;;4.68;;
26946;SDS011;14501;52.282;10.560;2023-06-26T09:32:26;5.90;;;4.68;;
26946;SDS011;14501;52.282;10.560;2023-06-26T09:34:53;6.18;;;4.97;;
26946;SDS011;14501;52.282;10.560;2023-06-26T09:37:21;7.70;;;4.50;;
26946;SDS011;14501;52.282;10.560;2023-06-26T09:39:47;5.68;;;4.63;;
26946;SDS011;14501;52.282;10.560;2023-06-26T09:42:14;6.60;;;4.78;;
26946;SDS011;14501;52.282;10.560;2023-06-26T09:44:44;9.23;;;5.25;;
26946;SDS011;14501;52.282;10.560;2023-06-26T09:47:10;5.53;;;4.90;;
26946;SDS011;14501;52.282;10.560;2023-06-26T09:49:40;8.57;;;5.18;;
26946;SDS011;14501;52.282;10.560;2023-06-26T09:52:07;18.08;;;5.13;;
26946;SDS011;14501;52.282;10.560;2023-06-26T09:54:33;5.60;;;4.63;;
26946;SDS011;14501;52.282;10.560;2023-06-26T09:57:11;5.65;;;5.00;;
26946;SDS011;14501;52.282;10.560;2023-06-26T09:59:39;6.50;;;5.30;;
26946;SDS011;14501;52.282;10.560;2023-06-26T10:02:06;7.78;;;4.85;;
26946;SDS011;14501;52.282;10.560;2023-06-26T10:04:32;9.02;;;4.95;;
26946;SDS011;14501;52.282;10.560;2023-06-26T10:07:01;6.82;;;5.32;;
26946;SDS011;14501;52.282;10.560;2023-06-26T10:09:29;8.57;;;5.00;;
26946;SDS011;14501;52.282;10.560;2023-06-26T10:11:57;5.78;;;5.28;;
26946;SDS011;14501;52.282;10.560;2023-06-26T10:14:30;7.93;;;5.15;;
26946;SDS011;14501;52.282;10.560;2023-06-26T10:17:01;6.13;;;5.18;;
26946;SDS011;14501;52.282;10.560;2023-06-26T10:19:31;5.65;;;5.10;;
26946;SDS011;14501;52.282;10.560;2023-06-26T10:21:59;7.13;;;5.45;;
26946;SDS011;14501;52.282;10.560;2023-06-26T10:24:28;11.30;;;6.10;;
26946;SDS011;14501;52.282;10.560;2023-06-26T10:27:02;8.13;;;5.80;;
26946;SDS011;14501;52.282;10.560;2023-06-26T10:29:33;8.20;;;5.18;;
26946;SDS011;14501;52.282;10.560;2023-06-26T10:32:00;5.95;;;5.35;;
26946;SDS011;14501;52.282;10.560;2023-06-26T10:34:28;8.73;;;6.05;;
26946;SDS011;14501;52.282;10.560;2023-06-26T10:37:01;7.75;;;6.07;;
26946;SDS011;14501;52.282;10.560;2023-06-26T10:39:27;6.60;;;5.85;;
26946;SDS011;14501;52.282;10.560;2023-06-26T10:42:07;8.95;;;6.18;;
26946;SDS011;14501;52.282;10.560;2023-06-26T10:44:40;8.90;;;6.57;;
26946;SDS011;14501;52.282;10.560;2023-06-26T10:47:10;10.38;;;6.18;;
26946;SDS011;14501;52.282;10.560;2023-06-26T10:49:36;10.00;;;6.65;;
26946;SDS011;14501;52.282;10.560;2023-06-26T10:52:04;10.57;;;6.85;;
26946;SDS011;14501;52.282;10.560;2023-06-26T10:54:31;8.23;;;7.25;;
26946;SDS011;14501;52.282;10.560;2023-06-26T10:56:57;10.40;;;7.10;;
26946;SDS011;14501;52.282;10.560;2023-06-26T10:59:25;10.30;;;7.10;;
26946;SDS011;14501;52.282;10.560;2023-06-26T11:01:58;11.27;;;7.63;;
26946;SDS011;14501;52.282;10.560;2023-06-26T11:04:47;12.63;;;7.35;;
26946;SDS011;14501;52.282;10.560;2023-06-26T11:12:36;11.05;;;7.45;;
26946;SDS011;14501;52.282;10.560;2023-06-26T11:15:03;16.73;;;7.30;;
26946;SDS011;14501;52.282;10.560;2023-06-26T11:17:32;11.07;;;7.70;;
26946;SDS011;14501;52.282;10.560;2023-06-26T11:19:59;10.05;;;7.40;;
26946;SDS011;14501;52.282;10.560;2023-06-26T11:22:25;11.85;;;7.63;;
26946;SDS011;14501;52.282;10.560;2023-06-26T11:24:52;7.45;;;6.55;;
26946;SDS011;14501;52.282;10.560;2023-06-26T11:27:19;9.13;;;7.32;;
26946;SDS011;14501;52.282;10.560;2023-06-26T11:29:48;12.00;;;8.75;;
26946;SDS011;14501;52.282;10.560;2023-06-26T11:32:16;16.15;;;8.27;;
26946;SDS011;14501;52.282;10.560;2023-06-26T11:34:42;11.20;;;8.07;;
26946;SDS011;14501;52.282;10.560;2023-06-26T11:37:08;12.73;;;9.20;;
26946;SDS011;14501;52.282;10.560;2023-06-26T11:39:34;15.05;;;9.25;;
26946;SDS011;14501;52.282;10.560;2023-06-26T11:42:00;16.08;;;8.90;;
26946;SDS011;14501;52.282;10.560;2023-06-26T11:44:30;13.85;;;7.32;;
26946;SDS011;14501;52.282;10.560;2023-06-26T11:46:56;17.92;;;8.00;;
26946;SDS011;14501;52.282;10.560;2023-06-26T11:49:22;11.13;;;7.22;;
26946;SDS011;14501;52.282;10.560;2023-06-26T11:51:52;10.93;;;6.25;;
26946;SDS011;14501;52.282;10.560;2023-06-26T11:54:25;10.25;;;6.45;;
26946;SDS011;14501;52.282;10.560;2023-06-26T11:59:19;8.80;;;5.03;;
26946;SDS011;14501;52.282;10.560;2023-06-26T12:01:44;7.72;;;5.68;;
26946;SDS011;14501;52.282;10.560;2023-06-26T12:04:11;7.97;;;6.38;;
26946;SDS011;14501;52.282;10.560;2023-06-26T12:06:39;9.70;;;5.82;;
26946;SDS011;14501;52.282;10.560;2023-06-26T12:09:08;8.88;;;5.38;;
26946;SDS011;14501;52.282;10.560;2023-06-26T12:11:36;10.35;;;5.75;;
26946;SDS011;14501;52.282;10.560;2023-06-26T12:14:05;8.68;;;5.68;;
26946;SDS011;14501;52.282;10.560;2023-06-26T12:16:33;8.65;;;6.57;;
26946;SDS011;14501;52.282;10.560;2023-06-26T12:18:59;12.80;;;6.53;;
26946;SDS011;14501;52.282;10.560;2023-06-26T12:24:01;10.30;;;6.45;;
26946;SDS011;14501;52.282;10.560;2023-06-26T12:26:28;12.32;;;7.05;;
26946;SDS011;14501;52.282;10.560;2023-06-26T12:29:01;10.05;;;6.78;;
26946;SDS011;14501;52.282;10.560;2023-06-26T12:31:30;12.45;;;7.03;;
26946;SDS011;14501;52.282;10.560;2023-06-26T12:33:56;9.80;;;7.18;;
26946;SDS011;14501;52.282;10.560;2023-06-26T12:36:22;12.65;;;7.47;;
26946;SDS011;14501;52.282;10.560;2023-06-26T12:38:48;14.43;;;8.73;;
26946;SDS011;14501;52.282;10.560;2023-06-26T12:41:14;10.90;;;7.25;;
26946;SDS011;14501;52.282;10.560;2023-06-26T12:43:41;12.88;;;8.32;;
26946;SDS011;14501;52.282;10.560;2023-06-26T12:46:07;12.02;;;8.95;;
26946;SDS011;14501;52.282;10.560;2023-06-26T12:48:39;12.43;;;8.80;;
26946;SDS011;14501;52.282;10.560;2023-06-26T12:51:11;20.65;;;9.73;;
26946;SDS011;14501;52.282;10.560;2023-06-26T12:53:38;15.75;;;9.10;;
26946;SDS011;14501;52.282;10.560;2023-06-26T12:56:04;14.98;;;8.85;;
26946;SDS011;14501;52.282;10.560;2023-06-26T12:58:31;21.80;;;9.40;;
26946;SDS011;14501;52.282;10.560;2023-06-26T13:00:57;13.88;;;8.73;;
26946;SDS011;14501;52.282;10.560;2023-06-26T13:03:22;14.43;;;7.88;;
26946;SDS011;14501;52.282;10.560;2023-06-26T13:05:48;11.88;;;8.15;;
26946;SDS011;14501;52.282;10.560;2023-06-26T13:08:14;16.50;;;9.68;;
26946;SDS011;14501;52.282;10.560;2023-06-26T13:10:42;10.07;;;7.68;;
26946;SDS011;14501;52.282;10.560;2023-06-26T13:13:09;17.35;;;9.00;;
26946;SDS011;14501;52.282;10.560;2023-06-26T13:15:35;14.30;;;8.85;;
26946;SDS011;14501;52.282;10.560;2023-06-26T13:18:01;11.13;;;8.00;;
26946;SDS011;14501;52.282;10.560;2023-06-26T13:20:27;11.90;;;6.43;;
26946;SDS011;14501;52.282;10.560;2023-06-26T13:22:53;12.52;;;6.65;;
26946;SDS011;14501;52.282;10.560;2023-06-26T13:25:19;13.27;;;6.25;;
26946;SDS011;14501;52.282;10.560;2023-06-26T13:27:45;9.23;;;6.50;;
26946;SDS011;14501;52.282;10.560;2023-06-26T13:30:11;10.48;;;5.63;;
26946;SDS011;14501;52.282;10.560;2023-06-26T13:32:37;9.95;;;5.90;;
26946;SDS011;14501;52.282;10.560;2023-06-26T13:35:02;14.75;;;5.57;;
26946;SDS011;14501;52.282;10.560;2023-06-26T13:37:29;6.45;;;5.40;;
26946;SDS011;14501;52.282;10.560;2023-06-26T13:39:55;6.72;;;5.30;;
26946;SDS011;14501;52.282;10.560;2023-06-26T13:42:20;10.25;;;5.38;;
26946;SDS011;14501;52.282;10.560;2023-06-26T13:44:46;7.07;;;4.50;;
26946;SDS011;14501;52.282;10.560;2023-06-26T13:47:12;8.98;;;4.57;;
26946;SDS011;14501;52.282;10.560;2023-06-26T13:49:39;11.00;;;5.13;;
26946;SDS011;14501;52.282;10.560;2023-06-26T13:52:05;7.32;;;4.82;;
26946;SDS011;14501;52.282;10.560;2023-06-26T13:54:33;10.60;;;4.72;;
26946;SDS011;14501;52.282;10.560;2023-06-26T13:57:00;7.50;;;4.85;;
26946;SDS011;14501;52.282;10.560;2023-06-26T13:59:27;9.18;;;4.75;;
26946;SDS011;14501;52.282;10.560;2023-06-26T14:01:53;7.75;;;4.18;;
26946;SDS011;14501;52.282;10.560;2023-06-26T14:04:18;9.40;;;4.38;;
26946;SDS011;14501;52.282;10.560;2023-06-26T14:06:44;5.30;;;4.35;;
26946;SDS011;14501;52.282;10.560;2023-06-26T14:09:10;8.90;;;4.00;;
26946;SDS011;14501;52.282;10.560;2023-06-26T14:11:36;6.30;;;4.00;;
26946;SDS011;14501;52.282;10.560;2023-06-26T14:14:01;9.18;;;3.92;;
26946;SDS011;14501;52.282;10.560;2023-06-26T14:16:27;14.85;;;4.68;;
26946;SDS011;14501;52.282;10.560;2023-06-26T14:18:53;9.35;;;4.13;;
26946;SDS011;14501;52.282;10.560;2023-06-26T14:21:19;7.65;;;3.60;;
26946;SDS011;14501;52.282;10.560;2023-06-26T14:23:45;7.38;;;3.83;;
26946;SDS011;14501;52.282;10.560;2023-06-26T14:26:11;6.95;;;4.22;;
26946;SDS011;14501;52.282;10.560;2023-06-26T14:28:37;8.30;;;3.95;;
26946;SDS011;14501;52.282;10.560;2023-06-26T14:31:03;7.03;;;3.38;;
26946;SDS011;14501;52.282;10.560;2023-06-26T14:33:29;6.13;;;3.47;;
26946;SDS011;14501;52.282;10.560;2023-06-26T14:35:55;21.30;;;4.05;;
26946;SDS011;14501;52.282;10.560;2023-06-26T14:38:20;5.13;;;3.17;;
26946;SDS011;14501;52.282;10.560;2023-06-26T14:40:46;5.60;;;3.05;;
26946;SDS011;14501;52.282;10.560;2023-06-26T14:43:12;10.20;;;3.13;;
26946;SDS011;14501;52.282;10.560;2023-06-26T14:45:37;6.35;;;3.33;;
26946;SDS011;14501;52.282;10.560;2023-06-26T14:48:03;5.85;;;3.10;;